createdAt,value
2024-01-31T00:01:09.294Z,102165.45
2024-01-31T00:03:27.922Z,102166.09
2024-01-31T00:05:36.159Z,102173.80
2024-01-31T00:07:44.617Z,102169.32
2024-01-31T00:09:52.768Z,102160.58
2024-01-31T00:12:01.282Z,102160.90
2024-01-31T00:14:09.894Z,102161.67
2024-01-31T00:16:18.175Z,102160.39
2024-01-31T00:18:26.466Z,102155.56
2024-01-31T00:20:34.597Z,102157.23
2024-01-31T00:22:45.680Z,102155.25
2024-01-31T00:24:53.884Z,102158.06
2024-01-31T00:27:01.949Z,102161.01
2024-01-31T00:29:10.033Z,102169.15
2024-01-31T00:31:18.954Z,102168.77
2024-01-31T00:33:27.128Z,102173.88
2024-01-31T00:35:35.301Z,102181.91
2024-01-31T00:37:43.873Z,102180.23
2024-01-31T00:39:52.101Z,102184.81
2024-01-31T00:42:00.273Z,102183.94
2024-01-31T00:44:08.503Z,102185.64
2024-01-31T00:46:16.811Z,102178.41
2024-01-31T00:48:25.153Z,102179.70
2024-01-31T00:50:33.512Z,102176.81
2024-01-31T00:52:45.567Z,102175.69
2024-01-31T00:54:54.255Z,102180.55
2024-01-31T00:57:02.615Z,102183.59
2024-01-31T00:59:10.817Z,102185.08
2024-01-31T01:01:19.351Z,102181.69
2024-01-31T01:03:27.655Z,102184.95
2024-01-31T01:05:35.959Z,102183.80
2024-01-31T01:07:46.919Z,102184.84
2024-01-31T01:09:55.230Z,102187.40
2024-01-31T01:12:04.372Z,102190.61
2024-01-31T01:14:12.446Z,102195.04
2024-01-31T01:16:21.639Z,102192.25
2024-01-31T01:18:29.764Z,102189.98
2024-01-31T01:20:38.385Z,102185.93
2024-01-31T01:22:48.010Z,102184.93
2024-01-31T01:24:56.218Z,102181.18
2024-01-31T01:27:04.408Z,102179.27
2024-01-31T01:29:12.629Z,102181.64
2024-01-31T01:31:20.852Z,102181.91
2024-01-31T01:33:29.052Z,102174.70
2024-01-31T01:35:39.880Z,102180.02
2024-01-31T01:37:48.035Z,102180.33
2024-01-31T01:39:56.313Z,102177.10
2024-01-31T01:42:04.517Z,102182.92
2024-01-31T01:44:15.820Z,102185.69
2024-01-31T01:46:25.397Z,102185.54
2024-01-31T01:48:33.568Z,102183.20
2024-01-31T01:50:42.469Z,102185.41
2024-01-31T01:52:51.732Z,102185.92
2024-01-31T01:55:04.107Z,102187.22
2024-01-31T01:57:13.398Z,102184.98
2024-01-31T01:59:22.328Z,102182.70
2024-01-31T02:01:31.370Z,102180.80
2024-01-31T02:03:39.823Z,102181.77
2024-01-31T02:05:48.425Z,102180.66
2024-01-31T02:07:57.571Z,102184.66
2024-01-31T02:10:06.380Z,102187.77
2024-01-31T02:12:14.996Z,102185.54
2024-01-31T02:14:23.102Z,102186.95
2024-01-31T02:16:31.949Z,102186.55
2024-01-31T02:18:40.227Z,102185.90
2024-01-31T02:20:48.797Z,102181.73
2024-01-31T02:22:58.261Z,102186.61
2024-01-31T02:25:13.164Z,102194.23
2024-01-31T02:27:22.576Z,102191.19
2024-01-31T02:29:30.756Z,102190.30
2024-01-31T02:31:38.985Z,102183.02
2024-01-31T02:33:47.145Z,102174.91
2024-01-31T02:35:55.339Z,102177.27
2024-01-31T02:38:03.762Z,102181.16
2024-01-31T02:40:13.421Z,102180.63
2024-01-31T02:42:21.943Z,102179.70
2024-01-31T02:44:30.472Z,102182.45
2024-01-31T02:46:39.373Z,102182.27
2024-01-31T02:48:47.931Z,102178.41
2024-01-31T02:50:56.167Z,102183.09
2024-01-31T02:53:04.778Z,102177.29
2024-01-31T02:55:13.443Z,102171.48
2024-01-31T02:57:21.714Z,102171.59
2024-01-31T02:59:29.795Z,102168.66
2024-01-31T03:01:38.612Z,102168.12
2024-01-31T03:03:46.801Z,102170.06
2024-01-31T03:05:55.010Z,102170.17
2024-01-31T03:08:03.326Z,102168.83
2024-01-31T03:10:13.631Z,102165.82
2024-01-31T03:12:23.276Z,102169.48
2024-01-31T03:14:31.452Z,102165.63
2024-01-31T03:16:41.894Z,102171.02
2024-01-31T03:18:50.361Z,102174.94
2024-01-31T03:20:58.519Z,102173.73
2024-01-31T03:23:06.840Z,102177.28
2024-01-31T03:25:15.402Z,102175.41
2024-01-31T03:27:23.648Z,102180.48
2024-01-31T03:29:31.770Z,102174.45
2024-01-31T03:31:39.923Z,102173.20
2024-01-31T03:33:48.149Z,102169.91
2024-01-31T03:35:56.309Z,102169.66
2024-01-31T03:38:04.429Z,102171.74
2024-01-31T03:40:13.904Z,102172.62
2024-01-31T03:42:22.557Z,102171.10
2024-01-31T03:44:30.657Z,102170.62
2024-01-31T03:46:38.854Z,102168.38
2024-01-31T03:48:47.111Z,102174.08
2024-01-31T03:50:55.243Z,102173.59
2024-01-31T03:53:03.930Z,102170.03
2024-01-31T03:55:13.234Z,102167.75
2024-01-31T03:57:21.565Z,102173.86
2024-01-31T03:59:29.699Z,102169.66
2024-01-31T04:01:37.905Z,102169.36
2024-01-31T04:03:47.508Z,102173.35
2024-01-31T04:05:56.900Z,102171.27
2024-01-31T04:08:05.612Z,102172.94
2024-01-31T04:10:14.764Z,102172.90
2024-01-31T04:12:22.951Z,102170.23
2024-01-31T04:14:31.057Z,102170.41
2024-01-31T04:16:39.173Z,102170.69
2024-01-31T04:18:47.825Z,102170.81
2024-01-31T04:20:56.015Z,102171.77
2024-01-31T04:23:04.144Z,102171.31
2024-01-31T04:25:12.428Z,102171.65
2024-01-31T04:27:20.688Z,102176.23
2024-01-31T04:29:28.815Z,102170.33
2024-01-31T04:31:37.493Z,102172.66
2024-01-31T04:33:46.546Z,102172.02
2024-01-31T04:35:56.165Z,102180.83
2024-01-31T04:38:04.320Z,102180.28
2024-01-31T04:40:13.876Z,102183.30
2024-01-31T04:42:22.037Z,102183.20
2024-01-31T04:44:30.446Z,102180.21
2024-01-31T04:46:38.817Z,102181.46
2024-01-31T04:48:47.895Z,102178.38
2024-01-31T04:50:56.057Z,102180.15
2024-01-31T04:53:04.133Z,102175.76
2024-01-31T04:55:12.770Z,102175.40
2024-01-31T04:57:21.120Z,102178.96
2024-01-31T04:59:29.264Z,102174.77
2024-01-31T05:01:37.487Z,102180.38
2024-01-31T05:03:46.101Z,102175.39
2024-01-31T05:05:54.279Z,102176.86
2024-01-31T05:08:02.395Z,102181.66
2024-01-31T05:10:12.486Z,102181.27
2024-01-31T05:12:21.379Z,102177.86
2024-01-31T05:14:29.568Z,102179.16
2024-01-31T05:16:40.876Z,102175.42
2024-01-31T05:18:49.376Z,102181.97
2024-01-31T05:20:57.737Z,102179.96
2024-01-31T05:23:06.025Z,102185.14
2024-01-31T05:25:14.554Z,102183.23
2024-01-31T05:27:22.623Z,102186.97
2024-01-31T05:29:30.766Z,102188.21
2024-01-31T05:31:38.997Z,102191.71
2024-01-31T05:33:47.529Z,102186.70
2024-01-31T05:35:55.643Z,102188.60
2024-01-31T05:38:03.751Z,102192.02
2024-01-31T05:40:17.943Z,102188.55
2024-01-31T05:42:26.223Z,102186.50
2024-01-31T05:44:34.344Z,102191.85
2024-01-31T05:46:42.571Z,102192.81
2024-01-31T05:48:51.123Z,102197.34
2024-01-31T05:50:59.716Z,102195.20
2024-01-31T05:53:08.516Z,102190.56
2024-01-31T05:55:16.891Z,102191.71
2024-01-31T05:57:25.923Z,102194.55
2024-01-31T05:59:35.518Z,102194.08
2024-01-31T06:01:43.750Z,102195.56
2024-01-31T06:03:52.066Z,102200.60
2024-01-31T06:06:00.280Z,102202.96
2024-01-31T06:08:09.639Z,102202.04
2024-01-31T06:10:17.932Z,102202.40
2024-01-31T06:12:26.073Z,102204.55
2024-01-31T06:14:37.309Z,102201.47
2024-01-31T06:16:45.450Z,102201.78
2024-01-31T06:18:53.676Z,102203.65
2024-01-31T06:21:01.904Z,102201.75
2024-01-31T06:23:11.295Z,102207.86
2024-01-31T06:25:19.687Z,102207.02
2024-01-31T06:27:28.276Z,102208.77
2024-01-31T06:29:36.343Z,102207.48
2024-01-31T06:31:48.112Z,102210.73
2024-01-31T06:33:56.921Z,102207.81
2024-01-31T06:36:05.099Z,102207.98
2024-01-31T06:38:13.212Z,102213.92
2024-01-31T06:40:22.006Z,102217.86
2024-01-31T06:42:30.118Z,102221.60
2024-01-31T06:44:38.215Z,102223.20
2024-01-31T06:46:50.492Z,102228.94
2024-01-31T06:48:59.753Z,102231.05
2024-01-31T06:51:09.824Z,102225.96
2024-01-31T06:53:19.032Z,102231.98
2024-01-31T06:55:27.522Z,102231.61
2024-01-31T06:57:36.359Z,102233.27
2024-01-31T06:59:44.482Z,102235.59
2024-01-31T07:01:52.565Z,102235.99
2024-01-31T07:04:00.732Z,102231.90
2024-01-31T07:06:09.481Z,102231.33
2024-01-31T07:08:17.732Z,102232.52
2024-01-31T07:10:26.018Z,102237.95
2024-01-31T07:12:34.219Z,102244.08
2024-01-31T07:14:44.884Z,102243.99
2024-01-31T07:16:53.257Z,102249.80
2024-01-31T07:19:01.519Z,102251.55
2024-01-31T07:21:13.260Z,102249.31
2024-01-31T07:23:22.280Z,102252.39
2024-01-31T07:25:30.427Z,102254.55
2024-01-31T07:27:39.522Z,102259.59
2024-01-31T07:29:49.870Z,102260.61
2024-01-31T07:31:58.221Z,102264.15
2024-01-31T07:34:06.514Z,102266.31
2024-01-31T07:36:15.125Z,102269.02
2024-01-31T07:38:23.980Z,102271.47
2024-01-31T07:40:32.268Z,102271.75
2024-01-31T07:42:41.264Z,102271.90
2024-01-31T07:44:49.594Z,102281.96
2024-01-31T07:46:58.775Z,102279.11
2024-01-31T07:49:08.218Z,102281.33
2024-01-31T07:51:16.932Z,102279.27
2024-01-31T07:53:25.178Z,102282.45
2024-01-31T07:55:33.490Z,102278.38
2024-01-31T07:57:41.768Z,102285.02
2024-01-31T07:59:49.982Z,102285.87
2024-01-31T08:01:58.260Z,102284.59
2024-01-31T08:04:08.364Z,102288.92
2024-01-31T08:06:16.754Z,102288.27
2024-01-31T08:08:25.154Z,102293.34
2024-01-31T08:10:33.506Z,102294.20
2024-01-31T08:12:42.552Z,102292.11
2024-01-31T08:14:50.729Z,102293.48
2024-01-31T08:16:58.984Z,102293.23
2024-01-31T08:19:08.001Z,102298.52
2024-01-31T08:21:16.502Z,102300.20
2024-01-31T08:23:24.756Z,102302.72
2024-01-31T08:25:33.289Z,102306.20
2024-01-31T08:27:41.736Z,102305.64
2024-01-31T08:29:49.991Z,102306.96
2024-01-31T08:31:58.312Z,102307.88
2024-01-31T08:34:06.759Z,102303.97
2024-01-31T08:36:15.282Z,102301.21
2024-01-31T08:38:24.840Z,102301.73
2024-01-31T08:40:33.088Z,102312.98
2024-01-31T08:42:41.515Z,102318.09
2024-01-31T08:44:50.075Z,102315.61
2024-01-31T08:47:10.162Z,102315.16
2024-01-31T08:49:26.678Z,102313.92
2024-01-31T08:51:36.789Z,102313.24
2024-01-31T08:53:45.423Z,102317.84
2024-01-31T08:56:01.531Z,102317.14
2024-01-31T08:58:17.022Z,102315.42
2024-01-31T09:00:25.663Z,102313.41
2024-01-31T09:02:33.957Z,102314.57
2024-01-31T09:04:42.327Z,102315.77
2024-01-31T09:06:50.748Z,102310.69
2024-01-31T09:08:59.114Z,102307.13
2024-01-31T09:11:07.731Z,102307.41
2024-01-31T09:13:16.124Z,102306.27
2024-01-31T09:15:24.396Z,102308.99
2024-01-31T09:17:32.657Z,102308.83
2024-01-31T09:19:43.028Z,102308.77
2024-01-31T09:21:53.202Z,102314.05
2024-01-31T09:24:02.122Z,102314.73
2024-01-31T09:26:11.060Z,102310.35
2024-01-31T09:28:19.319Z,102311.16
2024-01-31T09:30:27.585Z,102313.16
2024-01-31T09:32:35.857Z,102314.38
2024-01-31T09:34:44.982Z,102314.33
2024-01-31T09:36:53.666Z,102314.55
2024-01-31T09:39:01.886Z,102314.13
2024-01-31T09:41:10.171Z,102311.94
2024-01-31T09:43:18.509Z,102311.29
2024-01-31T09:45:29.217Z,102307.63
2024-01-31T09:47:39.262Z,102309.13
2024-01-31T09:49:47.552Z,102306.80
2024-01-31T09:52:01.229Z,102309.88
2024-01-31T09:54:11.842Z,102311.52
2024-01-31T09:56:20.519Z,102311.73
2024-01-31T09:58:29.020Z,102315.08
2024-01-31T10:00:38.570Z,102312.34
2024-01-31T10:02:50.114Z,102317.30
2024-01-31T10:04:58.572Z,102314.45
2024-01-31T10:07:09.500Z,102315.90
2024-01-31T10:09:18.512Z,102311.27
2024-01-31T10:11:26.888Z,102306.19
2024-01-31T10:13:35.235Z,102305.17
2024-01-31T10:15:43.927Z,102304.36
2024-01-31T10:17:52.205Z,102300.94
2024-01-31T10:20:08.249Z,102299.85
2024-01-31T10:22:16.735Z,102296.23
2024-01-31T10:24:25.115Z,102299.06
2024-01-31T10:26:35.482Z,102293.45
2024-01-31T10:28:45.796Z,102292.68
2024-01-31T10:30:59.459Z,102293.79
2024-01-31T10:33:08.978Z,102292.66
2024-01-31T10:35:32.877Z,102292.73
2024-01-31T10:37:55.800Z,102292.53
2024-01-31T10:40:11.877Z,102292.34
2024-01-31T10:42:20.828Z,102293.39
2024-01-31T10:44:29.984Z,102292.70
2024-01-31T10:46:38.368Z,102291.04
2024-01-31T10:48:47.042Z,102288.73
2024-01-31T10:50:58.037Z,102287.23
2024-01-31T10:53:10.150Z,102286.34
2024-01-31T10:55:19.319Z,102290.30
2024-01-31T10:57:29.430Z,102293.64
2024-01-31T10:59:39.629Z,102288.30
2024-01-31T11:02:00.142Z,102289.73
2024-01-31T11:04:11.508Z,102293.02
2024-01-31T11:06:20.678Z,102291.77
2024-01-31T11:08:29.409Z,102298.23
2024-01-31T11:10:39.900Z,102294.94
2024-01-31T11:13:00.937Z,102298.02
2024-01-31T11:15:10.878Z,102297.62
2024-01-31T11:17:25.027Z,102299.45
2024-01-31T11:19:34.428Z,102298.63
2024-01-31T11:21:42.700Z,102299.77
2024-01-31T11:23:51.226Z,102304.31
2024-01-31T11:26:00.247Z,102305.91
2024-01-31T11:28:11.192Z,102304.17
2024-01-31T11:30:19.825Z,102310.62
2024-01-31T11:32:28.334Z,102311.73
2024-01-31T11:34:36.764Z,102313.73
2024-01-31T11:36:45.192Z,102314.05
2024-01-31T11:38:53.496Z,102313.38
2024-01-31T11:41:02.179Z,102306.65
2024-01-31T11:43:11.573Z,102302.74
2024-01-31T11:45:20.284Z,102304.11
2024-01-31T11:47:29.395Z,102299.29
2024-01-31T11:49:37.858Z,102299.77
2024-01-31T11:51:54.571Z,102301.48
2024-01-31T11:54:02.918Z,102300.10
2024-01-31T11:56:12.723Z,102299.99
2024-01-31T11:58:21.120Z,102302.31
2024-01-31T12:00:30.798Z,102304.02
2024-01-31T12:02:40.154Z,102301.08
2024-01-31T12:04:59.513Z,102304.34
2024-01-31T12:07:09.458Z,102306.89
2024-01-31T12:09:18.509Z,102309.27
2024-01-31T12:11:27.286Z,102306.25
2024-01-31T12:13:35.992Z,102300.92
2024-01-31T12:15:44.253Z,102300.54
2024-01-31T12:17:52.751Z,102299.42
2024-01-31T12:20:10.356Z,102292.94
2024-01-31T12:22:19.698Z,102298.88
2024-01-31T12:24:27.903Z,102298.48
2024-01-31T12:26:36.208Z,102304.90
2024-01-31T12:28:54.722Z,102295.71
2024-01-31T12:31:02.980Z,102285.80
2024-01-31T12:33:11.310Z,102284.17
2024-01-31T12:35:20.982Z,102278.88
2024-01-31T12:37:29.420Z,102279.98
2024-01-31T12:39:37.655Z,102284.63
2024-01-31T12:41:49.292Z,102283.66
2024-01-31T12:43:58.360Z,102281.16
2024-01-31T12:46:07.463Z,102282.59
2024-01-31T12:48:16.191Z,102283.27
2024-01-31T12:50:24.474Z,102281.27
2024-01-31T12:52:32.686Z,102281.77
2024-01-31T12:54:40.937Z,102281.65
2024-01-31T12:56:49.278Z,102285.35
2024-01-31T12:58:58.987Z,102284.02
2024-01-31T13:01:08.135Z,102282.93
2024-01-31T13:03:16.535Z,102277.67
2024-01-31T13:05:25.526Z,102275.04
2024-01-31T13:07:34.150Z,102265.86
2024-01-31T13:09:42.935Z,102269.81
2024-01-31T13:11:51.172Z,102266.73
2024-01-31T13:13:59.320Z,102267.10
2024-01-31T13:16:08.887Z,102264.27
2024-01-31T13:18:17.192Z,102266.55
2024-01-31T13:20:25.553Z,102259.83
2024-01-31T13:22:33.744Z,102263.20
2024-01-31T13:24:41.872Z,102262.76
2024-01-31T13:26:50.328Z,102262.62
2024-01-31T13:28:58.612Z,102259.70
2024-01-31T13:31:06.892Z,102259.25
2024-01-31T13:33:15.108Z,102260.41
2024-01-31T13:35:24.207Z,102257.91
2024-01-31T13:37:32.425Z,102257.16
2024-01-31T13:39:40.515Z,102254.70
2024-01-31T13:41:48.633Z,102249.36
2024-01-31T13:43:56.689Z,102244.85
2024-01-31T13:46:05.266Z,102248.42
2024-01-31T13:48:13.478Z,102251.57
2024-01-31T13:50:21.785Z,102251.38
2024-01-31T13:52:30.317Z,102244.77
2024-01-31T13:54:38.508Z,102246.21
2024-01-31T13:56:46.618Z,102249.02
2024-01-31T13:58:54.736Z,102243.44
2024-01-31T14:01:03.243Z,102245.05
2024-01-31T14:03:11.485Z,102238.67
2024-01-31T14:05:20.163Z,102242.85
2024-01-31T14:07:28.336Z,102252.30
2024-01-31T14:09:36.447Z,102255.33
2024-01-31T14:11:44.662Z,102256.05
2024-01-31T14:13:52.819Z,102254.34
2024-01-31T14:16:00.894Z,102252.80
2024-01-31T14:18:13.249Z,102243.48
2024-01-31T14:20:23.090Z,102240.14
2024-01-31T14:24:43.605Z,102235.81
2024-01-31T14:26:52.190Z,102247.64
2024-01-31T14:29:00.299Z,102243.05
2024-01-31T14:31:10.670Z,102240.05
2024-01-31T14:33:18.940Z,102234.55
2024-01-31T14:35:27.254Z,102240.88
2024-01-31T14:37:35.412Z,102242.79
2024-01-31T14:39:43.615Z,102247.58
2024-01-31T14:41:51.780Z,102246.30
2024-01-31T14:43:59.937Z,102247.77
2024-01-31T14:46:08.268Z,102248.00
2024-01-31T14:48:17.705Z,102245.75
2024-01-31T14:50:26.097Z,102245.98
2024-01-31T14:52:35.512Z,102250.52
2024-01-31T14:54:43.846Z,102255.88
2024-01-31T14:56:53.388Z,102259.14
2024-01-31T14:59:01.660Z,102258.70
2024-01-31T15:01:10.442Z,102258.55
2024-01-31T15:03:18.664Z,102261.25
2024-01-31T15:05:27.636Z,102261.56
2024-01-31T15:07:35.977Z,102264.27
2024-01-31T15:09:44.115Z,102264.45
2024-01-31T15:11:52.816Z,102269.06
2024-01-31T15:14:01.220Z,102265.71
2024-01-31T15:16:15.770Z,102267.55
2024-01-31T15:18:24.027Z,102261.91
2024-01-31T15:20:32.515Z,102263.26
2024-01-31T15:22:40.828Z,102266.48
2024-01-31T15:24:48.995Z,102268.69
2024-01-31T15:26:57.162Z,102265.16
2024-01-31T15:29:05.324Z,102268.63
2024-01-31T15:31:13.543Z,102264.42
2024-01-31T15:33:21.951Z,102268.95
2024-01-31T15:35:32.407Z,102270.65
2024-01-31T15:37:40.667Z,102272.20
2024-01-31T15:39:48.861Z,102268.17
2024-01-31T15:41:57.204Z,102264.70
2024-01-31T15:44:05.360Z,102262.02
2024-01-31T15:46:14.602Z,102257.79
2024-01-31T15:48:23.724Z,102251.20
2024-01-31T15:50:32.325Z,102252.99
2024-01-31T15:52:40.807Z,102252.28
2024-01-31T15:54:49.062Z,102249.73
2024-01-31T15:56:57.484Z,102243.84
2024-01-31T15:59:28.489Z,102241.10
2024-01-31T16:01:38.080Z,102233.01
2024-01-31T16:03:46.730Z,102233.06
2024-01-31T16:05:55.133Z,102231.95
2024-01-31T16:08:03.631Z,102228.33
2024-01-31T16:10:12.416Z,102227.36
2024-01-31T16:12:20.831Z,102224.16
2024-01-31T16:14:29.250Z,102223.09
2024-01-31T16:16:37.430Z,102215.88
2024-01-31T16:18:45.761Z,102211.80
2024-01-31T16:20:54.307Z,102205.21
2024-01-31T16:23:03.055Z,102199.02
2024-01-31T16:25:12.299Z,102196.66
2024-01-31T16:27:20.561Z,102190.35
2024-01-31T16:29:28.904Z,102184.25
2024-01-31T16:31:40.467Z,102171.33
2024-01-31T16:33:48.749Z,102163.54
2024-01-31T16:35:58.923Z,102161.59
2024-01-31T16:38:08.518Z,102158.66
2024-01-31T16:40:17.432Z,102159.80
2024-01-31T16:42:25.667Z,102166.48
2024-01-31T16:44:33.885Z,102165.17
2024-01-31T16:46:42.621Z,102162.10
2024-01-31T16:48:52.829Z,102165.75
2024-01-31T16:51:01.317Z,102172.48
2024-01-31T16:53:09.509Z,102174.58
2024-01-31T16:55:18.096Z,102170.63
2024-01-31T16:57:26.270Z,102164.91
2024-01-31T16:59:34.696Z,102174.27
2024-01-31T17:01:47.016Z,102179.61
2024-01-31T17:03:55.525Z,102176.30
2024-01-31T17:06:04.578Z,102172.31
2024-01-31T17:08:12.905Z,102161.83
2024-01-31T17:10:21.113Z,102175.12
2024-01-31T17:12:30.378Z,102183.34
2024-01-31T17:14:43.759Z,102181.00
2024-01-31T17:16:55.682Z,102171.33
2024-01-31T17:19:05.723Z,102173.45
2024-01-31T17:21:14.700Z,102177.30
2024-01-31T17:23:25.608Z,102172.61
2024-01-31T17:25:35.423Z,102176.22
2024-01-31T17:27:43.569Z,102177.30
2024-01-31T17:29:51.794Z,102178.72
2024-01-31T17:31:59.995Z,102176.09
2024-01-31T17:34:08.366Z,102173.72
2024-01-31T17:36:19.065Z,102166.55
2024-01-31T17:38:27.301Z,102164.16
2024-01-31T17:40:35.525Z,102158.68
2024-01-31T17:42:44.133Z,102153.27
2024-01-31T17:44:53.027Z,102147.70
2024-01-31T17:47:01.556Z,102146.00
2024-01-31T17:49:09.748Z,102142.25
2024-01-31T17:51:18.102Z,102138.44
2024-01-31T17:53:26.308Z,102132.45
2024-01-31T17:55:34.760Z,102129.92
2024-01-31T17:57:43.458Z,102125.33
2024-01-31T17:59:52.586Z,102124.92
2024-01-31T18:02:01.782Z,102122.65
2024-01-31T18:04:11.325Z,102124.29
2024-01-31T18:06:19.563Z,102116.20
2024-01-31T18:08:27.849Z,102116.90
2024-01-31T18:10:36.359Z,102121.78
2024-01-31T18:12:44.523Z,102113.35
2024-01-31T18:14:52.722Z,102108.63
2024-01-31T18:17:00.880Z,102110.99
2024-01-31T18:19:09.215Z,102106.66
2024-01-31T18:21:17.743Z,102107.58
2024-01-31T18:23:26.499Z,102110.91
2024-01-31T18:25:34.666Z,102105.11
2024-01-31T18:27:42.853Z,102109.59
2024-01-31T18:29:51.513Z,102107.61
2024-01-31T18:31:59.758Z,102108.13
2024-01-31T18:34:07.980Z,102110.35
2024-01-31T18:36:16.336Z,102106.67
2024-01-31T18:38:25.215Z,102103.14
2024-01-31T18:40:33.290Z,102096.95
2024-01-31T18:42:41.389Z,102094.80
2024-01-31T18:44:50.893Z,102090.93
2024-01-31T18:46:59.921Z,102088.95
2024-01-31T18:49:09.740Z,102082.73
2024-01-31T18:51:18.278Z,102072.45
2024-01-31T18:53:26.423Z,102061.36
2024-01-31T18:55:34.571Z,102052.30
2024-01-31T18:57:42.679Z,102049.91
2024-01-31T18:59:51.536Z,102050.30
2024-01-31T19:02:02.004Z,102049.61
2024-01-31T19:04:10.122Z,102052.77
2024-01-31T19:06:20.026Z,102049.86
2024-01-31T19:08:28.454Z,102048.32
2024-01-31T19:10:37.121Z,102047.27
2024-01-31T19:12:45.196Z,102045.86
2024-01-31T19:14:53.349Z,102043.81
2024-01-31T19:17:10.490Z,102040.98
2024-01-31T19:19:23.855Z,102033.78
2024-01-31T19:21:32.108Z,102031.67
2024-01-31T19:23:40.262Z,102026.44
2024-01-31T19:25:48.713Z,102021.52
2024-01-31T19:27:57.087Z,102014.70
2024-01-31T19:30:08.656Z,102011.39
2024-01-31T19:32:18.835Z,102005.53
2024-01-31T19:34:27.016Z,102002.20
2024-01-31T19:36:35.483Z,102000.27
2024-01-31T19:38:43.607Z,101997.59
2024-01-31T19:40:52.965Z,101996.39
2024-01-31T19:43:01.091Z,101989.45
2024-01-31T19:45:11.656Z,101983.77
2024-01-31T19:47:21.936Z,101977.88
2024-01-31T19:49:31.424Z,101981.45
2024-01-31T19:51:39.623Z,101977.06
2024-01-31T19:53:53.056Z,101976.06
2024-01-31T19:56:01.221Z,101970.66
2024-01-31T19:58:10.105Z,101969.70
2024-01-31T20:00:19.947Z,101975.07
2024-01-31T20:02:28.097Z,101973.63
2024-01-31T20:04:36.645Z,101972.34
2024-01-31T20:06:44.987Z,101971.55
2024-01-31T20:08:53.830Z,101967.84
2024-01-31T20:11:02.696Z,101968.63
2024-01-31T20:13:10.883Z,101965.19
2024-01-31T20:15:19.605Z,101961.77
2024-01-31T20:17:30.429Z,101964.40
2024-01-31T20:19:39.060Z,101967.16
2024-01-31T20:21:48.338Z,101964.86
2024-01-31T20:23:58.131Z,101962.25
2024-01-31T20:26:06.531Z,101962.10
2024-01-31T20:28:14.654Z,101962.66
2024-01-31T20:30:23.137Z,101956.36
2024-01-31T20:32:31.355Z,101959.09
2024-01-31T20:34:39.623Z,101958.59
2024-01-31T20:36:47.764Z,101951.83
2024-01-31T20:38:55.972Z,101943.20
2024-01-31T20:41:04.156Z,101931.30
2024-01-31T20:43:12.229Z,101927.20
2024-01-31T20:45:20.973Z,101922.98
2024-01-31T20:47:29.587Z,101913.75
2024-01-31T20:49:41.333Z,101908.02
2024-01-31T20:51:49.621Z,101898.52
2024-01-31T20:53:57.715Z,101884.77
2024-01-31T20:56:08.533Z,101877.34
2024-01-31T20:58:17.093Z,101870.15
2024-01-31T21:00:25.665Z,101863.02
2024-01-31T21:02:34.234Z,101858.02
2024-01-31T21:04:42.625Z,101840.24
2024-01-31T21:06:50.934Z,101831.48
2024-01-31T21:08:59.195Z,101817.24
2024-01-31T21:11:08.215Z,101810.58
2024-01-31T21:13:18.271Z,101807.17
2024-01-31T21:15:26.687Z,101804.23
2024-01-31T21:17:35.392Z,101801.97
2024-01-31T21:19:43.569Z,101799.42
2024-01-31T21:21:51.882Z,101799.14
2024-01-31T21:24:00.902Z,101802.48
2024-01-31T21:26:09.848Z,101801.27
2024-01-31T21:28:21.244Z,101801.62
2024-01-31T21:30:29.513Z,101802.09
2024-01-31T21:32:37.722Z,101803.42
2024-01-31T21:34:45.958Z,101802.91
2024-01-31T21:36:54.129Z,101801.11
2024-01-31T21:39:02.509Z,101797.02
2024-01-31T21:41:10.762Z,101794.77
2024-01-31T21:43:18.922Z,101782.68
2024-01-31T21:45:26.988Z,101778.50
2024-01-31T21:47:35.187Z,101775.56
2024-01-31T21:49:43.497Z,101772.58
2024-01-31T21:51:51.653Z,101768.89
2024-01-31T21:53:59.869Z,101761.66
2024-01-31T21:56:09.533Z,101754.77
2024-01-31T21:58:18.064Z,101750.09
2024-01-31T22:00:26.770Z,101725.34
2024-01-31T22:02:35.746Z,101718.91
2024-01-31T22:04:45.580Z,101728.39
2024-01-31T22:06:56.420Z,101729.55
2024-01-31T22:09:06.090Z,101728.35
2024-01-31T22:11:15.519Z,101716.16
2024-01-31T22:13:24.206Z,101709.14
2024-01-31T22:15:32.850Z,101705.45
2024-01-31T22:17:42.549Z,101703.52
2024-01-31T22:19:51.228Z,101702.58
2024-01-31T22:21:59.570Z,101693.11
2024-01-31T22:24:10.565Z,101693.59
2024-01-31T22:26:20.916Z,101688.63
2024-01-31T22:28:29.127Z,101685.45
2024-01-31T22:30:37.311Z,101680.90
2024-01-31T22:32:45.577Z,101677.18
2024-01-31T22:34:54.057Z,101676.11
2024-01-31T22:37:03.031Z,101670.73
2024-01-31T22:39:19.609Z,101665.77
2024-01-31T22:41:27.982Z,101658.58
2024-01-31T22:43:36.596Z,101652.08
2024-01-31T22:45:44.738Z,101646.98
2024-01-31T22:47:52.984Z,101645.52
2024-01-31T22:50:01.534Z,101641.14
2024-01-31T22:52:10.253Z,101636.58
2024-01-31T22:54:18.839Z,101629.39
2024-01-31T22:56:27.482Z,101630.35
2024-01-31T22:58:35.525Z,101623.50
2024-01-31T23:00:43.700Z,101623.38
2024-01-31T23:02:52.408Z,101612.36
2024-01-31T23:05:00.732Z,101610.02
2024-01-31T23:07:09.440Z,101604.39
2024-01-31T23:09:17.768Z,101602.10
2024-01-31T23:11:26.274Z,101594.64
2024-01-31T23:13:35.353Z,101586.58
2024-01-31T23:15:43.808Z,101582.30
2024-01-31T23:17:52.464Z,101575.89
2024-01-31T23:20:01.131Z,101570.34
2024-01-31T23:22:10.406Z,101561.13
2024-01-31T23:24:19.051Z,101550.31
2024-01-31T23:26:27.235Z,101542.38
2024-01-31T23:28:35.331Z,101536.52
2024-01-31T23:30:43.871Z,101530.35
2024-01-31T23:32:52.368Z,101520.52
2024-01-31T23:35:00.587Z,101512.52
2024-01-31T23:37:09.651Z,101509.16
2024-01-31T23:39:17.819Z,101504.89
2024-01-31T23:41:26.666Z,101501.17
2024-01-31T23:43:34.798Z,101497.33
2024-01-31T23:45:43.397Z,101497.33
2024-01-31T23:47:51.599Z,101495.98
2024-01-31T23:50:00.243Z,101495.11
2024-01-31T23:52:09.787Z,101502.17
2024-01-31T23:54:17.942Z,101503.07
2024-01-31T23:56:26.101Z,101505.42
2024-01-31T23:58:34.250Z,101508.36
